sensor_id;sensor_type;location;lat;lon;timestamp;P1;durP1;ratioP1;P2;durP2;ratioP2
3647;SDS011;1840;48.892;15.312;2022-07-18T00:02:21;4.47;;;2.20;;
3647;SDS011;1840;48.892;15.312;2022-07-18T00:04:51;5.73;;;2.93;;
3647;SDS011;1840;48.892;15.312;2022-07-18T00:07:20;4.57;;;2.70;;
3647;SDS011;1840;48.892;15.312;2022-07-18T00:09:48;4.93;;;2.50;;
3647;SDS011;1840;48.892;15.312;2022-07-18T00:12:16;5.33;;;2.47;;
3647;SDS011;1840;48.892;15.312;2022-07-18T00:14:44;5.93;;;2.80;;
3647;SDS011;1840;48.892;15.312;2022-07-18T00:17:13;4.57;;;2.60;;
3647;SDS011;1840;48.892;15.312;2022-07-18T00:19:41;4.20;;;2.70;;
3647;SDS011;1840;48.892;15.312;2022-07-18T00:22:11;5.33;;;2.23;;
3647;SDS011;1840;48.892;15.312;2022-07-18T00:24:40;5.30;;;2.60;;
3647;SDS011;1840;48.892;15.312;2022-07-18T00:27:08;4.67;;;2.40;;
3647;SDS011;1840;48.892;15.312;2022-07-18T00:29:39;11.67;;;2.40;;
3647;SDS011;1840;48.892;15.312;2022-07-18T00:32:08;4.80;;;2.70;;
3647;SDS011;1840;48.892;15.312;2022-07-18T00:34:36;5.17;;;2.17;;
3647;SDS011;1840;48.892;15.312;2022-07-18T00:37:05;5.80;;;2.90;;
3647;SDS011;1840;48.892;15.312;2022-07-18T00:39:35;4.40;;;2.40;;
3647;SDS011;1840;48.892;15.312;2022-07-18T00:42:05;5.07;;;2.40;;
3647;SDS011;1840;48.892;15.312;2022-07-18T00:44:33;4.00;;;2.77;;
3647;SDS011;1840;48.892;15.312;2022-07-18T00:47:03;8.10;;;2.90;;
3647;SDS011;1840;48.892;15.312;2022-07-18T00:49:32;4.30;;;2.43;;
3647;SDS011;1840;48.892;15.312;2022-07-18T00:52:00;4.53;;;2.17;;
3647;SDS011;1840;48.892;15.312;2022-07-18T00:54:29;5.03;;;2.07;;
3647;SDS011;1840;48.892;15.312;2022-07-18T00:57:00;3.77;;;2.43;;
3647;SDS011;1840;48.892;15.312;2022-07-18T00:59:29;4.20;;;2.37;;
3647;SDS011;1840;48.892;15.312;2022-07-18T01:02:14;8.73;;;2.40;;
3647;SDS011;1840;48.892;15.312;2022-07-18T01:04:43;5.50;;;2.60;;
3647;SDS011;1840;48.892;15.312;2022-07-18T01:07:11;3.57;;;2.17;;
3647;SDS011;1840;48.892;15.312;2022-07-18T01:09:39;6.83;;;2.10;;
3647;SDS011;1840;48.892;15.312;2022-07-18T01:12:08;7.90;;;3.13;;
3647;SDS011;1840;48.892;15.312;2022-07-18T01:14:37;7.67;;;2.90;;
3647;SDS011;1840;48.892;15.312;2022-07-18T01:17:13;7.80;;;3.23;;
3647;SDS011;1840;48.892;15.312;2022-07-18T01:19:42;4.23;;;2.33;;
3647;SDS011;1840;48.892;15.312;2022-07-18T01:22:13;7.30;;;3.00;;
3647;SDS011;1840;48.892;15.312;2022-07-18T01:24:42;5.83;;;2.70;;
3647;SDS011;1840;48.892;15.312;2022-07-18T01:27:13;4.23;;;2.43;;
3647;SDS011;1840;48.892;15.312;2022-07-18T01:29:42;5.17;;;2.93;;
3647;SDS011;1840;48.892;15.312;2022-07-18T01:32:12;4.07;;;2.40;;
3647;SDS011;1840;48.892;15.312;2022-07-18T01:34:41;6.80;;;2.60;;
3647;SDS011;1840;48.892;15.312;2022-07-18T01:37:10;9.60;;;2.60;;
3647;SDS011;1840;48.892;15.312;2022-07-18T01:39:40;5.83;;;2.97;;
3647;SDS011;1840;48.892;15.312;2022-07-18T01:42:09;4.00;;;2.50;;
3647;SDS011;1840;48.892;15.312;2022-07-18T01:44:38;7.97;;;3.60;;
3647;SDS011;1840;48.892;15.312;2022-07-18T01:47:07;6.20;;;3.37;;
3647;SDS011;1840;48.892;15.312;2022-07-18T01:49:37;4.20;;;2.67;;
3647;SDS011;1840;48.892;15.312;2022-07-18T01:52:06;6.27;;;2.50;;
3647;SDS011;1840;48.892;15.312;2022-07-18T01:54:42;4.70;;;3.00;;
3647;SDS011;1840;48.892;15.312;2022-07-18T01:57:10;4.70;;;2.50;;
3647;SDS011;1840;48.892;15.312;2022-07-18T01:59:38;5.07;;;2.90;;
3647;SDS011;1840;48.892;15.312;2022-07-18T02:02:06;5.10;;;2.90;;
3647;SDS011;1840;48.892;15.312;2022-07-18T02:04:35;6.73;;;2.67;;
3647;SDS011;1840;48.892;15.312;2022-07-18T02:07:20;3.67;;;2.37;;
3647;SDS011;1840;48.892;15.312;2022-07-18T02:09:50;4.30;;;2.80;;
3647;SDS011;1840;48.892;15.312;2022-07-18T02:12:18;7.23;;;3.10;;
3647;SDS011;1840;48.892;15.312;2022-07-18T02:14:47;14.87;;;2.90;;
3647;SDS011;1840;48.892;15.312;2022-07-18T02:17:15;4.20;;;2.70;;
3647;SDS011;1840;48.892;15.312;2022-07-18T02:19:44;5.60;;;2.43;;
3647;SDS011;1840;48.892;15.312;2022-07-18T02:22:12;6.30;;;3.13;;
3647;SDS011;1840;48.892;15.312;2022-07-18T02:24:40;4.30;;;3.03;;
3647;SDS011;1840;48.892;15.312;2022-07-18T02:27:10;5.30;;;3.03;;
3647;SDS011;1840;48.892;15.312;2022-07-18T02:29:38;6.70;;;2.30;;
3647;SDS011;1840;48.892;15.312;2022-07-18T02:32:07;4.23;;;2.53;;
3647;SDS011;1840;48.892;15.312;2022-07-18T02:34:35;3.60;;;2.77;;
3647;SDS011;1840;48.892;15.312;2022-07-18T02:37:04;3.50;;;2.50;;
3647;SDS011;1840;48.892;15.312;2022-07-18T02:39:33;5.03;;;2.40;;
3647;SDS011;1840;48.892;15.312;2022-07-18T02:42:01;3.67;;;2.73;;
3647;SDS011;1840;48.892;15.312;2022-07-18T02:44:31;3.43;;;2.40;;
3647;SDS011;1840;48.892;15.312;2022-07-18T02:46:59;6.00;;;2.70;;
3647;SDS011;1840;48.892;15.312;2022-07-18T02:49:28;8.10;;;2.73;;
3647;SDS011;1840;48.892;15.312;2022-07-18T02:51:59;3.50;;;2.50;;
3647;SDS011;1840;48.892;15.312;2022-07-18T02:54:28;3.90;;;2.60;;
3647;SDS011;1840;48.892;15.312;2022-07-18T02:56:58;6.90;;;2.40;;
3647;SDS011;1840;48.892;15.312;2022-07-18T02:59:26;4.00;;;2.67;;
3647;SDS011;1840;48.892;15.312;2022-07-18T03:01:56;4.60;;;2.60;;
3647;SDS011;1840;48.892;15.312;2022-07-18T03:04:24;3.70;;;2.40;;
3647;SDS011;1840;48.892;15.312;2022-07-18T03:06:53;4.83;;;2.77;;
3647;SDS011;1840;48.892;15.312;2022-07-18T03:09:21;4.80;;;3.03;;
3647;SDS011;1840;48.892;15.312;2022-07-18T03:11:53;4.63;;;2.73;;
3647;SDS011;1840;48.892;15.312;2022-07-18T03:14:22;9.70;;;2.60;;
3647;SDS011;1840;48.892;15.312;2022-07-18T03:16:51;3.97;;;2.73;;
3647;SDS011;1840;48.892;15.312;2022-07-18T03:19:21;6.53;;;2.90;;
3647;SDS011;1840;48.892;15.312;2022-07-18T03:21:49;5.67;;;2.90;;
3647;SDS011;1840;48.892;15.312;2022-07-18T03:24:18;4.40;;;2.97;;
3647;SDS011;1840;48.892;15.312;2022-07-18T03:26:46;5.27;;;2.40;;
3647;SDS011;1840;48.892;15.312;2022-07-18T03:29:14;5.47;;;2.83;;
3647;SDS011;1840;48.892;15.312;2022-07-18T03:31:42;7.60;;;2.77;;
3647;SDS011;1840;48.892;15.312;2022-07-18T03:34:11;7.50;;;2.93;;
3647;SDS011;1840;48.892;15.312;2022-07-18T03:36:40;4.00;;;2.70;;
3647;SDS011;1840;48.892;15.312;2022-07-18T03:39:09;6.50;;;3.37;;
3647;SDS011;1840;48.892;15.312;2022-07-18T03:41:38;3.13;;;2.50;;
3647;SDS011;1840;48.892;15.312;2022-07-18T03:44:06;5.57;;;3.20;;
3647;SDS011;1840;48.892;15.312;2022-07-18T03:46:35;5.23;;;2.90;;
3647;SDS011;1840;48.892;15.312;2022-07-18T03:49:04;4.20;;;2.80;;
3647;SDS011;1840;48.892;15.312;2022-07-18T03:51:32;5.50;;;3.00;;
3647;SDS011;1840;48.892;15.312;2022-07-18T03:54:02;12.43;;;3.30;;
3647;SDS011;1840;48.892;15.312;2022-07-18T03:56:30;4.73;;;2.73;;
3647;SDS011;1840;48.892;15.312;2022-07-18T03:58:59;10.50;;;3.80;;
3647;SDS011;1840;48.892;15.312;2022-07-18T04:01:27;6.20;;;3.10;;
3647;SDS011;1840;48.892;15.312;2022-07-18T04:03:56;6.80;;;3.23;;
3647;SDS011;1840;48.892;15.312;2022-07-18T04:06:24;4.73;;;2.93;;
3647;SDS011;1840;48.892;15.312;2022-07-18T04:08:53;6.73;;;3.23;;
3647;SDS011;1840;48.892;15.312;2022-07-18T04:11:23;5.70;;;2.73;;
3647;SDS011;1840;48.892;15.312;2022-07-18T04:13:51;6.10;;;3.37;;
3647;SDS011;1840;48.892;15.312;2022-07-18T04:16:20;9.80;;;3.20;;
3647;SDS011;1840;48.892;15.312;2022-07-18T04:18:49;4.27;;;2.97;;
3647;SDS011;1840;48.892;15.312;2022-07-18T04:21:18;4.17;;;3.03;;
3647;SDS011;1840;48.892;15.312;2022-07-18T04:23:46;11.27;;;3.43;;
3647;SDS011;1840;48.892;15.312;2022-07-18T04:26:14;8.87;;;3.50;;
3647;SDS011;1840;48.892;15.312;2022-07-18T04:28:44;8.80;;;2.70;;
3647;SDS011;1840;48.892;15.312;2022-07-18T04:31:12;4.63;;;2.47;;
3647;SDS011;1840;48.892;15.312;2022-07-18T04:33:41;8.73;;;3.10;;
3647;SDS011;1840;48.892;15.312;2022-07-18T04:36:11;14.50;;;3.50;;
3647;SDS011;1840;48.892;15.312;2022-07-18T04:38:39;5.60;;;2.80;;
3647;SDS011;1840;48.892;15.312;2022-07-18T04:41:07;7.87;;;3.57;;
3647;SDS011;1840;48.892;15.312;2022-07-18T04:43:36;5.43;;;2.97;;
3647;SDS011;1840;48.892;15.312;2022-07-18T04:46:05;11.80;;;3.37;;
3647;SDS011;1840;48.892;15.312;2022-07-18T04:48:33;5.50;;;3.20;;
3647;SDS011;1840;48.892;15.312;2022-07-18T04:51:03;5.40;;;2.87;;
3647;SDS011;1840;48.892;15.312;2022-07-18T04:53:31;4.83;;;2.83;;
3647;SDS011;1840;48.892;15.312;2022-07-18T04:55:59;7.60;;;3.53;;
3647;SDS011;1840;48.892;15.312;2022-07-18T04:58:28;6.80;;;3.93;;
3647;SDS011;1840;48.892;15.312;2022-07-18T05:00:56;6.40;;;4.10;;
3647;SDS011;1840;48.892;15.312;2022-07-18T05:03:25;11.03;;;5.87;;
3647;SDS011;1840;48.892;15.312;2022-07-18T05:05:53;6.97;;;4.00;;
3647;SDS011;1840;48.892;15.312;2022-07-18T05:08:22;9.30;;;4.17;;
3647;SDS011;1840;48.892;15.312;2022-07-18T05:10:50;5.63;;;3.67;;
3647;SDS011;1840;48.892;15.312;2022-07-18T05:13:18;5.33;;;3.03;;
3647;SDS011;1840;48.892;15.312;2022-07-18T05:15:47;5.80;;;3.70;;
3647;SDS011;1840;48.892;15.312;2022-07-18T05:18:15;6.20;;;3.73;;
3647;SDS011;1840;48.892;15.312;2022-07-18T05:20:45;7.00;;;3.47;;
3647;SDS011;1840;48.892;15.312;2022-07-18T05:23:14;7.03;;;3.67;;
3647;SDS011;1840;48.892;15.312;2022-07-18T05:25:43;9.33;;;3.80;;
3647;SDS011;1840;48.892;15.312;2022-07-18T05:28:11;13.50;;;4.30;;
3647;SDS011;1840;48.892;15.312;2022-07-18T05:30:39;7.67;;;3.80;;
3647;SDS011;1840;48.892;15.312;2022-07-18T05:33:08;8.57;;;3.70;;
3647;SDS011;1840;48.892;15.312;2022-07-18T05:35:36;8.27;;;3.70;;
3647;SDS011;1840;48.892;15.312;2022-07-18T05:38:06;6.77;;;3.63;;
3647;SDS011;1840;48.892;15.312;2022-07-18T05:40:34;7.43;;;4.20;;
3647;SDS011;1840;48.892;15.312;2022-07-18T05:43:03;8.10;;;4.70;;
3647;SDS011;1840;48.892;15.312;2022-07-18T05:45:31;11.80;;;4.27;;
3647;SDS011;1840;48.892;15.312;2022-07-18T05:47:59;9.07;;;4.37;;
3647;SDS011;1840;48.892;15.312;2022-07-18T05:50:28;6.43;;;3.70;;
3647;SDS011;1840;48.892;15.312;2022-07-18T05:52:56;8.90;;;4.97;;
3647;SDS011;1840;48.892;15.312;2022-07-18T05:55:26;12.90;;;4.53;;
3647;SDS011;1840;48.892;15.312;2022-07-18T05:57:54;10.33;;;4.00;;
3647;SDS011;1840;48.892;15.312;2022-07-18T06:00:22;7.27;;;3.37;;
3647;SDS011;1840;48.892;15.312;2022-07-18T06:02:51;9.50;;;3.90;;
3647;SDS011;1840;48.892;15.312;2022-07-18T06:05:19;7.53;;;3.13;;
3647;SDS011;1840;48.892;15.312;2022-07-18T06:07:51;7.60;;;3.90;;
3647;SDS011;1840;48.892;15.312;2022-07-18T06:10:20;14.40;;;5.87;;
3647;SDS011;1840;48.892;15.312;2022-07-18T06:12:51;10.00;;;4.27;;
3647;SDS011;1840;48.892;15.312;2022-07-18T06:15:20;7.20;;;3.53;;
3647;SDS011;1840;48.892;15.312;2022-07-18T06:17:48;7.20;;;3.40;;
3647;SDS011;1840;48.892;15.312;2022-07-18T06:20:17;7.83;;;4.13;;
3647;SDS011;1840;48.892;15.312;2022-07-18T06:22:45;6.43;;;3.37;;
3647;SDS011;1840;48.892;15.312;2022-07-18T06:25:14;12.23;;;5.70;;
3647;SDS011;1840;48.892;15.312;2022-07-18T06:27:42;16.30;;;3.63;;
3647;SDS011;1840;48.892;15.312;2022-07-18T06:30:12;8.10;;;3.60;;
3647;SDS011;1840;48.892;15.312;2022-07-18T06:32:41;8.00;;;3.23;;
3647;SDS011;1840;48.892;15.312;2022-07-18T06:35:09;7.80;;;3.47;;
3647;SDS011;1840;48.892;15.312;2022-07-18T06:37:37;6.50;;;2.70;;
3647;SDS011;1840;48.892;15.312;2022-07-18T06:40:06;9.53;;;4.07;;
3647;SDS011;1840;48.892;15.312;2022-07-18T06:42:35;8.00;;;3.30;;
3647;SDS011;1840;48.892;15.312;2022-07-18T06:45:04;11.20;;;3.37;;
3647;SDS011;1840;48.892;15.312;2022-07-18T06:47:41;7.80;;;2.33;;
3647;SDS011;1840;48.892;15.312;2022-07-18T06:50:09;8.17;;;2.67;;
3647;SDS011;1840;48.892;15.312;2022-07-18T06:52:38;8.87;;;3.20;;
3647;SDS011;1840;48.892;15.312;2022-07-18T06:55:07;8.47;;;3.90;;
3647;SDS011;1840;48.892;15.312;2022-07-18T06:57:37;5.60;;;3.00;;
3647;SDS011;1840;48.892;15.312;2022-07-18T07:00:06;12.30;;;2.50;;
3647;SDS011;1840;48.892;15.312;2022-07-18T07:02:41;4.53;;;1.77;;
3647;SDS011;1840;48.892;15.312;2022-07-18T07:05:11;6.30;;;2.00;;
3647;SDS011;1840;48.892;15.312;2022-07-18T07:07:39;10.17;;;2.23;;
3647;SDS011;1840;48.892;15.312;2022-07-18T07:10:13;5.90;;;2.17;;
3647;SDS011;1840;48.892;15.312;2022-07-18T07:12:42;4.47;;;1.73;;
3647;SDS011;1840;48.892;15.312;2022-07-18T07:15:13;7.40;;;2.10;;
3647;SDS011;1840;48.892;15.312;2022-07-18T07:17:44;5.57;;;2.27;;
3647;SDS011;1840;48.892;15.312;2022-07-18T07:20:13;5.30;;;2.00;;
3647;SDS011;1840;48.892;15.312;2022-07-18T07:22:44;13.20;;;2.60;;
3647;SDS011;1840;48.892;15.312;2022-07-18T07:25:14;25.63;;;3.30;;
3647;SDS011;1840;48.892;15.312;2022-07-18T07:27:43;6.33;;;1.70;;
3647;SDS011;1840;48.892;15.312;2022-07-18T07:30:12;7.57;;;2.47;;
3647;SDS011;1840;48.892;15.312;2022-07-18T07:32:43;7.73;;;2.40;;
3647;SDS011;1840;48.892;15.312;2022-07-18T07:35:15;4.77;;;1.80;;
3647;SDS011;1840;48.892;15.312;2022-07-18T07:37:45;5.13;;;1.67;;
3647;SDS011;1840;48.892;15.312;2022-07-18T07:40:14;5.27;;;2.30;;
3647;SDS011;1840;48.892;15.312;2022-07-18T07:42:43;11.77;;;2.47;;
3647;SDS011;1840;48.892;15.312;2022-07-18T07:45:12;8.40;;;2.00;;
3647;SDS011;1840;48.892;15.312;2022-07-18T07:47:41;7.93;;;1.80;;
3647;SDS011;1840;48.892;15.312;2022-07-18T07:50:11;6.97;;;2.23;;
3647;SDS011;1840;48.892;15.312;2022-07-18T07:52:40;3.93;;;1.70;;
3647;SDS011;1840;48.892;15.312;2022-07-18T07:55:08;4.23;;;2.07;;
3647;SDS011;1840;48.892;15.312;2022-07-18T07:57:36;5.37;;;1.70;;
3647;SDS011;1840;48.892;15.312;2022-07-18T08:00:05;9.83;;;2.37;;
3647;SDS011;1840;48.892;15.312;2022-07-18T08:02:35;4.87;;;2.37;;
3647;SDS011;1840;48.892;15.312;2022-07-18T08:05:04;9.00;;;1.90;;
3647;SDS011;1840;48.892;15.312;2022-07-18T08:07:34;4.57;;;2.10;;
3647;SDS011;1840;48.892;15.312;2022-07-18T08:10:02;5.10;;;2.30;;
3647;SDS011;1840;48.892;15.312;2022-07-18T08:12:31;5.33;;;1.90;;
3647;SDS011;1840;48.892;15.312;2022-07-18T08:14:59;4.17;;;1.93;;
3647;SDS011;1840;48.892;15.312;2022-07-18T08:17:28;7.80;;;2.17;;
3647;SDS011;1840;48.892;15.312;2022-07-18T08:19:56;5.43;;;1.80;;
3647;SDS011;1840;48.892;15.312;2022-07-18T08:22:24;10.70;;;2.50;;
3647;SDS011;1840;48.892;15.312;2022-07-18T08:24:54;5.57;;;1.80;;
3647;SDS011;1840;48.892;15.312;2022-07-18T08:27:22;8.10;;;2.30;;
3647;SDS011;1840;48.892;15.312;2022-07-18T08:29:50;5.17;;;2.00;;
3647;SDS011;1840;48.892;15.312;2022-07-18T08:32:33;4.93;;;2.10;;
3647;SDS011;1840;48.892;15.312;2022-07-18T08:35:01;7.30;;;2.10;;
3647;SDS011;1840;48.892;15.312;2022-07-18T08:37:29;7.90;;;1.93;;
3647;SDS011;1840;48.892;15.312;2022-07-18T08:39:59;5.43;;;2.00;;
3647;SDS011;1840;48.892;15.312;2022-07-18T08:42:27;5.27;;;2.10;;
3647;SDS011;1840;48.892;15.312;2022-07-18T08:44:55;5.93;;;1.93;;
3647;SDS011;1840;48.892;15.312;2022-07-18T08:47:24;3.63;;;1.80;;
3647;SDS011;1840;48.892;15.312;2022-07-18T08:49:55;5.27;;;2.03;;
3647;SDS011;1840;48.892;15.312;2022-07-18T08:52:24;4.10;;;1.90;;
3647;SDS011;1840;48.892;15.312;2022-07-18T08:55:16;6.73;;;2.27;;
3647;SDS011;1840;48.892;15.312;2022-07-18T08:57:52;4.27;;;1.77;;
3647;SDS011;1840;48.892;15.312;2022-07-18T09:00:21;3.97;;;1.80;;
3647;SDS011;1840;48.892;15.312;2022-07-18T09:02:56;4.67;;;1.67;;
3647;SDS011;1840;48.892;15.312;2022-07-18T09:05:25;6.70;;;2.30;;
3647;SDS011;1840;48.892;15.312;2022-07-18T09:08:09;5.83;;;2.13;;
3647;SDS011;1840;48.892;15.312;2022-07-18T09:10:50;5.07;;;1.77;;
3647;SDS011;1840;48.892;15.312;2022-07-18T09:13:21;5.00;;;1.53;;
3647;SDS011;1840;48.892;15.312;2022-07-18T09:15:58;5.53;;;1.80;;
3647;SDS011;1840;48.892;15.312;2022-07-18T09:18:28;7.33;;;2.20;;
3647;SDS011;1840;48.892;15.312;2022-07-18T09:21:03;5.13;;;1.77;;
3647;SDS011;1840;48.892;15.312;2022-07-18T09:23:34;5.80;;;1.60;;
3647;SDS011;1840;48.892;15.312;2022-07-18T09:26:07;6.97;;;2.00;;
3647;SDS011;1840;48.892;15.312;2022-07-18T09:28:44;6.20;;;2.03;;
3647;SDS011;1840;48.892;15.312;2022-07-18T09:31:35;3.70;;;1.77;;
3647;SDS011;1840;48.892;15.312;2022-07-18T09:34:04;5.33;;;1.53;;
3647;SDS011;1840;48.892;15.312;2022-07-18T09:36:33;4.30;;;1.60;;
3647;SDS011;1840;48.892;15.312;2022-07-18T09:39:16;3.70;;;1.30;;
3647;SDS011;1840;48.892;15.312;2022-07-18T09:41:47;3.43;;;1.80;;
3647;SDS011;1840;48.892;15.312;2022-07-18T09:44:15;3.50;;;1.37;;
3647;SDS011;1840;48.892;15.312;2022-07-18T09:47:00;6.03;;;1.30;;
3647;SDS011;1840;48.892;15.312;2022-07-18T09:49:29;6.73;;;1.60;;
3647;SDS011;1840;48.892;15.312;2022-07-18T09:52:02;5.20;;;1.70;;
3647;SDS011;1840;48.892;15.312;2022-07-18T09:54:35;3.80;;;1.50;;
3647;SDS011;1840;48.892;15.312;2022-07-18T09:57:05;6.07;;;1.50;;
3647;SDS011;1840;48.892;15.312;2022-07-18T09:59:34;4.57;;;1.43;;
3647;SDS011;1840;48.892;15.312;2022-07-18T10:02:03;2.70;;;1.10;;
3647;SDS011;1840;48.892;15.312;2022-07-18T10:04:31;4.00;;;1.40;;
3647;SDS011;1840;48.892;15.312;2022-07-18T10:07:00;2.80;;;1.30;;
3647;SDS011;1840;48.892;15.312;2022-07-18T10:09:29;5.50;;;1.70;;
3647;SDS011;1840;48.892;15.312;2022-07-18T10:11:58;4.13;;;1.30;;
3647;SDS011;1840;48.892;15.312;2022-07-18T10:14:29;3.53;;;1.40;;
3647;SDS011;1840;48.892;15.312;2022-07-18T10:16:58;6.90;;;1.93;;
3647;SDS011;1840;48.892;15.312;2022-07-18T10:19:29;3.30;;;1.30;;
3647;SDS011;1840;48.892;15.312;2022-07-18T10:22:01;6.10;;;1.80;;
3647;SDS011;1840;48.892;15.312;2022-07-18T10:24:29;10.70;;;1.73;;
3647;SDS011;1840;48.892;15.312;2022-07-18T10:27:11;5.40;;;1.40;;
3647;SDS011;1840;48.892;15.312;2022-07-18T10:29:42;5.70;;;1.73;;
3647;SDS011;1840;48.892;15.312;2022-07-18T10:32:37;6.70;;;1.70;;
3647;SDS011;1840;48.892;15.312;2022-07-18T10:35:07;3.33;;;1.00;;
3647;SDS011;1840;48.892;15.312;2022-07-18T10:37:37;3.30;;;1.50;;
3647;SDS011;1840;48.892;15.312;2022-07-18T10:40:22;4.53;;;1.30;;
3647;SDS011;1840;48.892;15.312;2022-07-18T10:46:02;7.93;;;1.90;;
3647;SDS011;1840;48.892;15.312;2022-07-18T10:51:31;7.97;;;1.77;;
3647;SDS011;1840;48.892;15.312;2022-07-18T10:54:04;3.93;;;1.70;;
3647;SDS011;1840;48.892;15.312;2022-07-18T10:59:34;6.73;;;1.63;;
3647;SDS011;1840;48.892;15.312;2022-07-18T11:02:05;5.00;;;1.67;;
3647;SDS011;1840;48.892;15.312;2022-07-18T11:04:36;5.30;;;1.87;;
3647;SDS011;1840;48.892;15.312;2022-07-18T11:07:08;5.13;;;1.57;;
3647;SDS011;1840;48.892;15.312;2022-07-18T11:09:41;3.67;;;1.47;;
3647;SDS011;1840;48.892;15.312;2022-07-18T11:12:21;7.53;;;1.30;;
3647;SDS011;1840;48.892;15.312;2022-07-18T11:15:01;5.43;;;1.20;;
3647;SDS011;1840;48.892;15.312;2022-07-18T11:18:00;2.97;;;1.10;;
3647;SDS011;1840;48.892;15.312;2022-07-18T11:23:20;3.60;;;1.20;;
3647;SDS011;1840;48.892;15.312;2022-07-18T11:25:50;3.57;;;1.10;;
3647;SDS011;1840;48.892;15.312;2022-07-18T11:28:24;6.30;;;1.40;;
3647;SDS011;1840;48.892;15.312;2022-07-18T11:31:00;5.43;;;1.30;;
3647;SDS011;1840;48.892;15.312;2022-07-18T11:33:32;6.67;;;1.57;;
3647;SDS011;1840;48.892;15.312;2022-07-18T11:36:02;3.40;;;1.40;;
3647;SDS011;1840;48.892;15.312;2022-07-18T11:38:36;5.83;;;1.60;;
3647;SDS011;1840;48.892;15.312;2022-07-18T11:41:06;2.90;;;1.20;;
3647;SDS011;1840;48.892;15.312;2022-07-18T11:43:35;5.73;;;1.50;;
3647;SDS011;1840;48.892;15.312;2022-07-18T11:46:04;8.00;;;1.80;;
3647;SDS011;1840;48.892;15.312;2022-07-18T11:48:43;4.77;;;1.20;;
3647;SDS011;1840;48.892;15.312;2022-07-18T11:51:12;4.13;;;1.63;;
3647;SDS011;1840;48.892;15.312;2022-07-18T11:53:42;3.20;;;1.47;;
3647;SDS011;1840;48.892;15.312;2022-07-18T11:56:10;3.10;;;1.30;;
3647;SDS011;1840;48.892;15.312;2022-07-18T11:58:40;4.00;;;1.60;;
3647;SDS011;1840;48.892;15.312;2022-07-18T12:01:09;4.53;;;1.37;;
3647;SDS011;1840;48.892;15.312;2022-07-18T12:03:39;4.57;;;1.73;;
3647;SDS011;1840;48.892;15.312;2022-07-18T12:06:13;5.20;;;1.40;;
3647;SDS011;1840;48.892;15.312;2022-07-18T12:08:43;6.60;;;1.47;;
3647;SDS011;1840;48.892;15.312;2022-07-18T12:11:14;3.90;;;1.33;;
3647;SDS011;1840;48.892;15.312;2022-07-18T12:13:48;4.63;;;1.63;;
3647;SDS011;1840;48.892;15.312;2022-07-18T12:16:33;4.27;;;1.43;;
3647;SDS011;1840;48.892;15.312;2022-07-18T12:19:05;5.80;;;1.77;;
3647;SDS011;1840;48.892;15.312;2022-07-18T12:21:48;5.80;;;1.37;;
3647;SDS011;1840;48.892;15.312;2022-07-18T12:24:28;5.53;;;1.43;;
3647;SDS011;1840;48.892;15.312;2022-07-18T12:27:15;4.20;;;1.47;;
3647;SDS011;1840;48.892;15.312;2022-07-18T12:29:58;6.33;;;1.77;;
3647;SDS011;1840;48.892;15.312;2022-07-18T12:32:30;3.70;;;1.40;;
3647;SDS011;1840;48.892;15.312;2022-07-18T12:35:07;5.97;;;1.50;;
3647;SDS011;1840;48.892;15.312;2022-07-18T12:37:37;4.57;;;1.30;;
3647;SDS011;1840;48.892;15.312;2022-07-18T12:40:12;6.20;;;1.67;;
3647;SDS011;1840;48.892;15.312;2022-07-18T12:43:05;5.30;;;1.50;;
3647;SDS011;1840;48.892;15.312;2022-07-18T12:45:35;3.70;;;1.33;;
3647;SDS011;1840;48.892;15.312;2022-07-18T12:48:06;5.20;;;1.40;;
3647;SDS011;1840;48.892;15.312;2022-07-18T12:50:38;4.93;;;1.50;;
3647;SDS011;1840;48.892;15.312;2022-07-18T12:53:08;4.90;;;1.50;;
3647;SDS011;1840;48.892;15.312;2022-07-18T12:55:36;3.83;;;1.20;;
3647;SDS011;1840;48.892;15.312;2022-07-18T12:58:15;6.23;;;1.50;;
3647;SDS011;1840;48.892;15.312;2022-07-18T13:00:43;5.50;;;1.53;;
3647;SDS011;1840;48.892;15.312;2022-07-18T13:03:13;3.23;;;1.30;;
3647;SDS011;1840;48.892;15.312;2022-07-18T13:05:44;8.83;;;1.60;;
3647;SDS011;1840;48.892;15.312;2022-07-18T13:08:13;8.90;;;1.83;;
3647;SDS011;1840;48.892;15.312;2022-07-18T13:10:41;3.60;;;1.30;;
3647;SDS011;1840;48.892;15.312;2022-07-18T13:13:09;5.47;;;1.40;;
3647;SDS011;1840;48.892;15.312;2022-07-18T13:15:38;5.60;;;1.87;;
3647;SDS011;1840;48.892;15.312;2022-07-18T13:18:06;6.00;;;1.30;;
3647;SDS011;1840;48.892;15.312;2022-07-18T13:20:41;5.60;;;1.70;;
3647;SDS011;1840;48.892;15.312;2022-07-18T13:23:11;3.03;;;1.30;;
3647;SDS011;1840;48.892;15.312;2022-07-18T13:25:41;3.43;;;1.40;;
3647;SDS011;1840;48.892;15.312;2022-07-18T13:28:09;24.33;;;2.00;;
3647;SDS011;1840;48.892;15.312;2022-07-18T13:30:38;3.73;;;1.20;;
3647;SDS011;1840;48.892;15.312;2022-07-18T13:33:06;9.60;;;1.53;;
3647;SDS011;1840;48.892;15.312;2022-07-18T13:35:34;4.40;;;1.77;;
3647;SDS011;1840;48.892;15.312;2022-07-18T13:38:02;3.50;;;1.27;;
3647;SDS011;1840;48.892;15.312;2022-07-18T13:40:32;3.47;;;1.37;;
3647;SDS011;1840;48.892;15.312;2022-07-18T13:43:00;4.67;;;1.27;;
3647;SDS011;1840;48.892;15.312;2022-07-18T13:45:28;6.93;;;1.60;;
3647;SDS011;1840;48.892;15.312;2022-07-18T13:47:56;7.10;;;1.50;;
3647;SDS011;1840;48.892;15.312;2022-07-18T13:50:24;5.73;;;1.33;;
3647;SDS011;1840;48.892;15.312;2022-07-18T13:52:52;2.70;;;1.10;;
3647;SDS011;1840;48.892;15.312;2022-07-18T13:55:20;5.77;;;1.80;;
3647;SDS011;1840;48.892;15.312;2022-07-18T13:57:50;3.03;;;1.30;;
3647;SDS011;1840;48.892;15.312;2022-07-18T14:00:18;2.90;;;1.20;;
3647;SDS011;1840;48.892;15.312;2022-07-18T14:02:46;3.60;;;1.60;;
3647;SDS011;1840;48.892;15.312;2022-07-18T14:05:15;5.03;;;1.80;;
3647;SDS011;1840;48.892;15.312;2022-07-18T14:07:43;4.30;;;1.30;;
3647;SDS011;1840;48.892;15.312;2022-07-18T14:10:13;3.90;;;1.50;;
3647;SDS011;1840;48.892;15.312;2022-07-18T14:12:42;4.00;;;1.23;;
3647;SDS011;1840;48.892;15.312;2022-07-18T14:15:12;5.10;;;1.73;;
3647;SDS011;1840;48.892;15.312;2022-07-18T14:17:40;9.73;;;1.80;;
3647;SDS011;1840;48.892;15.312;2022-07-18T14:20:09;5.57;;;1.57;;
3647;SDS011;1840;48.892;15.312;2022-07-18T14:22:39;5.20;;;1.70;;
3647;SDS011;1840;48.892;15.312;2022-07-18T14:25:09;3.37;;;1.10;;
3647;SDS011;1840;48.892;15.312;2022-07-18T14:27:38;3.20;;;1.23;;
3647;SDS011;1840;48.892;15.312;2022-07-18T14:30:08;7.83;;;1.40;;
3647;SDS011;1840;48.892;15.312;2022-07-18T14:32:40;5.00;;;1.50;;
3647;SDS011;1840;48.892;15.312;2022-07-18T14:35:08;2.90;;;1.23;;
3647;SDS011;1840;48.892;15.312;2022-07-18T14:37:37;3.80;;;1.63;;
3647;SDS011;1840;48.892;15.312;2022-07-18T14:40:06;2.40;;;1.13;;
3647;SDS011;1840;48.892;15.312;2022-07-18T14:42:35;9.23;;;1.23;;
3647;SDS011;1840;48.892;15.312;2022-07-18T14:45:04;3.43;;;1.33;;
3647;SDS011;1840;48.892;15.312;2022-07-18T14:47:33;3.67;;;1.20;;
3647;SDS011;1840;48.892;15.312;2022-07-18T14:50:03;3.37;;;1.20;;
3647;SDS011;1840;48.892;15.312;2022-07-18T14:52:33;3.30;;;1.40;;
3647;SDS011;1840;48.892;15.312;2022-07-18T14:55:01;3.50;;;1.20;;
3647;SDS011;1840;48.892;15.312;2022-07-18T14:57:31;5.80;;;1.37;;
3647;SDS011;1840;48.892;15.312;2022-07-18T15:00:00;4.20;;;1.20;;
3647;SDS011;1840;48.892;15.312;2022-07-18T15:02:28;3.20;;;1.00;;
3647;SDS011;1840;48.892;15.312;2022-07-18T15:04:56;4.20;;;1.60;;
3647;SDS011;1840;48.892;15.312;2022-07-18T15:07:26;2.63;;;1.10;;
3647;SDS011;1840;48.892;15.312;2022-07-18T15:09:54;5.00;;;1.30;;
3647;SDS011;1840;48.892;15.312;2022-07-18T15:12:22;3.50;;;1.07;;
3647;SDS011;1840;48.892;15.312;2022-07-18T15:14:50;2.93;;;1.10;;
3647;SDS011;1840;48.892;15.312;2022-07-18T15:17:20;3.10;;;1.50;;
3647;SDS011;1840;48.892;15.312;2022-07-18T15:19:48;6.17;;;1.70;;
3647;SDS011;1840;48.892;15.312;2022-07-18T15:22:16;3.20;;;1.20;;
3647;SDS011;1840;48.892;15.312;2022-07-18T15:24:46;4.73;;;1.30;;
3647;SDS011;1840;48.892;15.312;2022-07-18T15:27:14;5.23;;;1.40;;
3647;SDS011;1840;48.892;15.312;2022-07-18T15:29:42;8.03;;;1.80;;
3647;SDS011;1840;48.892;15.312;2022-07-18T15:32:10;5.43;;;1.67;;